createdAt,value
2022-11-12T00:00:12.280Z,4.45
2022-11-12T00:02:57.857Z,4.85
2022-11-12T00:05:45.166Z,6.00
2022-11-12T00:08:30.474Z,5.90
2022-11-12T00:11:16.631Z,4.50
2022-11-12T00:14:02.310Z,4.18
2022-11-12T00:16:47.924Z,4.88
2022-11-12T00:19:32.613Z,4.05
2022-11-12T00:22:17.717Z,5.90
2022-11-12T00:25:03.776Z,5.38
2022-11-12T00:27:49.005Z,8.18
2022-11-12T00:30:34.664Z,9.75
2022-11-12T00:33:19.489Z,10.48
2022-11-12T00:36:04.971Z,7.80
2022-11-12T00:38:50.024Z,5.57
2022-11-12T00:41:34.989Z,4.97
2022-11-12T00:44:20.199Z,5.00
2022-11-12T00:47:05.800Z,7.43
2022-11-12T00:49:50.758Z,4.47
2022-11-12T00:52:36.574Z,6.47
2022-11-12T00:55:21.991Z,8.18
2022-11-12T00:58:07.034Z,5.25
2022-11-12T01:00:51.890Z,6.63
2022-11-12T01:03:37.806Z,5.90
2022-11-12T01:06:23.642Z,5.95
2022-11-12T01:09:09.272Z,7.80
2022-11-12T01:11:54.553Z,7.95
2022-11-12T01:14:39.632Z,5.53
2022-11-12T01:17:24.980Z,7.32
2022-11-12T01:20:10.484Z,7.93
2022-11-12T01:22:55.699Z,13.57
2022-11-12T01:25:40.518Z,9.90
2022-11-12T01:28:25.732Z,8.80
2022-11-12T01:31:23.575Z,6.50
2022-11-12T01:36:54.597Z,6.15
2022-11-12T01:39:39.478Z,6.50
2022-11-12T01:42:29.902Z,10.02
2022-11-12T01:45:15.613Z,7.55
2022-11-12T01:48:01.065Z,6.13
2022-11-12T01:50:46.259Z,7.32
2022-11-12T01:53:35.508Z,8.23
2022-11-12T01:56:23.353Z,12.55
2022-11-12T01:59:29.022Z,7.70
2022-11-12T02:02:13.962Z,8.52
2022-11-12T02:04:59.789Z,6.63
2022-11-12T02:07:46.132Z,6.22
2022-11-12T02:10:30.974Z,6.70
2022-11-12T02:13:16.951Z,8.18
2022-11-12T02:16:04.615Z,5.10
2022-11-12T02:18:49.644Z,6.53
2022-11-12T02:21:37.794Z,5.40
2022-11-12T02:24:22.687Z,6.35
2022-11-12T02:27:07.700Z,6.75
2022-11-12T02:29:53.145Z,5.88
2022-11-12T02:32:37.967Z,5.85
2022-11-12T02:35:22.901Z,4.53
2022-11-12T02:38:08.808Z,5.07
2022-11-12T02:40:54.260Z,7.22
2022-11-12T02:43:40.155Z,7.85
2022-11-12T02:46:25.007Z,5.60
2022-11-12T02:49:10.569Z,15.43
2022-11-12T02:51:55.869Z,4.75
2022-11-12T02:54:41.117Z,4.68
2022-11-12T02:57:26.494Z,4.80
2022-11-12T03:00:13.487Z,5.18
2022-11-12T03:02:58.647Z,4.13
2022-11-12T03:05:44.806Z,3.38
2022-11-12T03:08:30.161Z,3.33
2022-11-12T03:11:16.959Z,4.68
2022-11-12T03:14:02.408Z,3.65
2022-11-12T03:16:47.788Z,4.80
2022-11-12T03:19:33.347Z,4.20
2022-11-12T03:22:18.278Z,11.98
2022-11-12T03:25:04.164Z,3.85
2022-11-12T03:27:49.473Z,3.55
2022-11-12T03:30:37.767Z,5.90
2022-11-12T03:33:22.585Z,2.97
2022-11-12T03:36:07.898Z,3.88
2022-11-12T03:38:53.380Z,5.38
2022-11-12T03:41:38.537Z,4.03
2022-11-12T03:44:23.413Z,5.15
2022-11-12T03:47:08.371Z,3.53
2022-11-12T03:49:53.246Z,2.50
2022-11-12T03:52:39.025Z,5.70
2022-11-12T03:55:26.762Z,2.35
2022-11-12T03:58:11.615Z,3.30
2022-11-12T04:00:56.386Z,2.83
2022-11-12T04:03:41.648Z,4.43
2022-11-12T04:06:26.618Z,3.65
2022-11-12T04:09:12.114Z,3.45
2022-11-12T04:11:57.721Z,5.60
2022-11-12T04:14:45.524Z,4.63
2022-11-12T04:17:30.517Z,3.38
2022-11-12T04:20:15.911Z,2.88
2022-11-12T04:23:01.168Z,5.15
2022-11-12T04:25:46.377Z,5.28
2022-11-12T04:28:31.442Z,1.98
2022-11-12T04:31:16.545Z,2.78
2022-11-12T04:34:01.669Z,4.30
2022-11-12T04:36:47.312Z,2.83
2022-11-12T04:39:32.630Z,3.70
2022-11-12T04:42:20.119Z,2.40
2022-11-12T04:45:10.292Z,4.10
2022-11-12T04:47:55.855Z,2.13
2022-11-12T04:50:42.501Z,3.65
2022-11-12T04:53:28.498Z,3.28
2022-11-12T04:56:13.589Z,2.92
2022-11-12T04:58:58.549Z,3.88
2022-11-12T05:01:44.169Z,2.90
2022-11-12T05:04:29.693Z,5.32
2022-11-12T05:07:15.148Z,3.90
2022-11-12T05:10:00.485Z,3.85
2022-11-12T05:12:45.315Z,7.47
2022-11-12T05:15:30.787Z,4.50
2022-11-12T05:18:15.641Z,4.00
2022-11-12T05:21:00.546Z,5.70
2022-11-12T05:23:45.408Z,4.38
2022-11-12T05:26:30.489Z,5.25
2022-11-12T05:29:15.746Z,4.80
2022-11-12T05:32:01.972Z,3.22
2022-11-12T05:34:47.418Z,5.15
2022-11-12T05:37:32.278Z,5.18
2022-11-12T05:40:17.345Z,7.82
2022-11-12T05:43:02.366Z,7.25
2022-11-12T05:45:47.601Z,6.43
2022-11-12T05:48:32.913Z,4.65
2022-11-12T05:51:17.981Z,4.80
2022-11-12T05:54:03.532Z,5.85
2022-11-12T05:56:48.424Z,8.25
2022-11-12T05:59:33.312Z,6.55
2022-11-12T06:02:18.396Z,5.68
2022-11-12T06:05:04.214Z,6.90
2022-11-12T06:07:49.469Z,44.60
2022-11-12T06:10:35.415Z,25.92
2022-11-12T06:13:22.910Z,9.65
2022-11-12T06:16:08.541Z,4.78
2022-11-12T06:18:53.537Z,13.48
2022-11-12T06:21:38.563Z,7.50
2022-11-12T06:24:24.161Z,22.50
2022-11-12T06:27:09.027Z,13.20
2022-11-12T06:29:54.275Z,10.15
2022-11-12T06:32:39.940Z,17.67
2022-11-12T06:35:24.820Z,19.05
2022-11-12T06:38:09.819Z,12.40
2022-11-12T06:40:54.686Z,17.67
2022-11-12T06:43:40.111Z,30.65
2022-11-12T06:46:24.981Z,23.45
2022-11-12T06:49:09.869Z,13.15
2022-11-12T06:51:55.113Z,62.70
2022-11-12T06:54:40.444Z,16.90
2022-11-12T06:57:25.559Z,27.80
2022-11-12T07:00:11.343Z,13.00
2022-11-12T07:02:56.639Z,13.00
2022-11-12T07:05:41.550Z,28.88
2022-11-12T07:08:26.940Z,16.08
2022-11-12T07:11:12.882Z,9.55
2022-11-12T07:13:58.409Z,9.93
2022-11-12T07:16:43.530Z,22.48
2022-11-12T07:19:28.491Z,14.00
2022-11-12T07:22:13.390Z,19.02
2022-11-12T07:24:58.840Z,26.67
2022-11-12T07:27:44.097Z,25.25
2022-11-12T07:30:29.319Z,12.32
2022-11-12T07:33:14.770Z,12.38
2022-11-12T07:36:02.070Z,8.95
2022-11-12T07:38:51.545Z,15.95
2022-11-12T07:41:36.491Z,11.48
2022-11-12T07:44:21.333Z,14.32
2022-11-12T07:47:06.161Z,13.57
2022-11-12T07:49:50.941Z,10.23
2022-11-12T07:52:35.825Z,12.00
2022-11-12T07:55:20.672Z,10.07
2022-11-12T07:58:05.436Z,12.93
2022-11-12T08:00:51.651Z,13.27
2022-11-12T08:03:36.946Z,11.50
2022-11-12T08:06:22.042Z,12.73
2022-11-12T08:09:08.384Z,16.52
2022-11-12T08:11:54.536Z,16.38
2022-11-12T08:14:40.189Z,6.97
2022-11-12T08:17:25.261Z,8.02
2022-11-12T08:20:10.612Z,19.50
2022-11-12T08:22:59.739Z,23.63
2022-11-12T08:25:44.493Z,10.98
2022-11-12T08:28:31.780Z,17.83
2022-11-12T08:31:20.190Z,47.78
2022-11-12T08:34:05.373Z,23.45
2022-11-12T08:36:50.234Z,10.68
2022-11-12T08:39:35.396Z,22.50
2022-11-12T08:42:20.768Z,23.77
2022-11-12T08:45:06.289Z,19.02
2022-11-12T08:47:51.417Z,18.35
2022-11-12T08:50:37.017Z,17.58
2022-11-12T08:53:24.098Z,13.30
2022-11-12T08:56:09.284Z,20.25
2022-11-12T08:58:54.230Z,20.65
2022-11-12T09:01:39.815Z,12.20
2022-11-12T09:04:25.354Z,28.25
2022-11-12T09:07:28.568Z,20.50
2022-11-12T09:10:15.216Z,11.65
2022-11-12T09:13:00.457Z,19.95
2022-11-12T09:15:46.346Z,12.57
2022-11-12T09:18:32.914Z,19.13
2022-11-12T09:21:18.201Z,10.95
2022-11-12T09:24:03.261Z,15.40
2022-11-12T09:26:48.238Z,7.07
2022-11-12T09:29:33.307Z,7.20
2022-11-12T09:32:18.572Z,8.43
2022-11-12T09:35:03.753Z,4.78
2022-11-12T09:37:48.986Z,6.07
2022-11-12T09:40:46.009Z,5.43
2022-11-12T09:43:34.745Z,8.80
2022-11-12T09:46:31.773Z,5.38
2022-11-12T09:49:23.199Z,8.48
2022-11-12T09:52:28.850Z,5.05
2022-11-12T09:55:31.102Z,5.72
2022-11-12T09:58:19.357Z,6.00
2022-11-12T10:01:29.933Z,5.45
2022-11-12T10:04:42.633Z,6.72
2022-11-12T10:07:34.026Z,8.32
2022-11-12T10:10:32.951Z,5.50
2022-11-12T10:13:39.866Z,5.25
2022-11-12T10:16:55.741Z,6.65
2022-11-12T10:19:53.790Z,5.30
2022-11-12T10:23:06.198Z,19.23
2022-11-12T10:25:55.914Z,11.13
2022-11-12T10:28:48.556Z,9.20
2022-11-12T10:31:33.615Z,11.35
2022-11-12T10:34:23.039Z,8.07
2022-11-12T10:37:35.677Z,6.78
2022-11-12T10:40:20.541Z,7.55
2022-11-12T10:43:20.151Z,8.90
2022-11-12T10:46:29.754Z,7.30
2022-11-12T10:49:14.465Z,5.82
2022-11-12T10:51:59.636Z,5.50
2022-11-12T10:54:44.998Z,11.07
2022-11-12T10:57:30.193Z,5.70
2022-11-12T11:00:15.098Z,10.55
2022-11-12T11:03:03.501Z,10.55
2022-11-12T11:05:53.383Z,7.32
2022-11-12T11:08:42.948Z,8.43
2022-11-12T11:11:31.811Z,6.38
2022-11-12T11:14:22.981Z,9.80
2022-11-12T11:17:16.726Z,25.20
2022-11-12T11:20:04.857Z,8.93
2022-11-12T11:22:56.965Z,6.43
2022-11-12T11:25:43.012Z,6.43
2022-11-12T11:28:39.996Z,5.93
2022-11-12T11:31:54.472Z,6.15
2022-11-12T11:34:48.756Z,5.20
2022-11-12T11:37:47.744Z,6.32
2022-11-12T11:40:56.776Z,179.07
2022-11-12T11:43:59.085Z,43.97
2022-11-12T11:47:16.835Z,15.10
2022-11-12T11:50:08.395Z,11.68
2022-11-12T11:53:23.638Z,8.50
2022-11-12T11:56:28.630Z,6.28
2022-11-12T11:59:38.315Z,6.25
2022-11-12T12:02:38.390Z,7.40
2022-11-12T12:05:41.193Z,5.32
2022-11-12T12:09:04.763Z,4.43
2022-11-12T12:12:00.919Z,5.85
2022-11-12T12:15:09.621Z,5.43
2022-11-12T12:18:19.143Z,5.13
2022-11-12T12:21:19.798Z,6.20
2022-11-12T12:24:18.690Z,6.10
2022-11-12T12:27:11.699Z,7.70
2022-11-12T12:30:02.094Z,5.45
2022-11-12T12:33:02.122Z,5.50
2022-11-12T12:35:55.804Z,4.15
2022-11-12T12:39:00.243Z,6.43
2022-11-12T12:42:03.973Z,9.00
2022-11-12T12:45:11.270Z,8.20
2022-11-12T12:47:57.263Z,6.88
2022-11-12T12:50:43.209Z,8.00
2022-11-12T12:53:28.218Z,8.90
2022-11-12T12:56:13.134Z,9.95
2022-11-12T12:58:58.782Z,9.80
2022-11-12T13:01:43.944Z,8.90
2022-11-12T13:04:58.093Z,8.57
2022-11-12T13:07:47.475Z,6.43
2022-11-12T13:10:41.512Z,8.77
2022-11-12T13:13:33.110Z,5.60
2022-11-12T13:16:51.720Z,6.30
2022-11-12T13:20:07.347Z,5.55
2022-11-12T13:22:52.784Z,5.80
2022-11-12T13:25:38.676Z,6.00
2022-11-12T13:28:24.023Z,5.70
2022-11-12T13:31:27.742Z,6.30
2022-11-12T13:34:19.361Z,3.95
2022-11-12T13:37:05.729Z,5.45
2022-11-12T13:39:51.675Z,5.75
2022-11-12T13:42:36.631Z,5.82
2022-11-12T13:45:24.758Z,5.60
2022-11-12T13:48:15.172Z,6.95
2022-11-12T13:51:04.257Z,6.93
2022-11-12T13:53:49.285Z,4.20
2022-11-12T13:56:36.041Z,6.30
2022-11-12T13:59:25.886Z,4.97
2022-11-12T14:02:24.866Z,4.95
2022-11-12T14:05:14.829Z,5.88
2022-11-12T14:08:21.552Z,5.85
2022-11-12T14:11:33.238Z,8.43
2022-11-12T14:14:33.258Z,8.50
2022-11-12T14:17:56.094Z,9.55
2022-11-12T14:20:42.358Z,7.18
2022-11-12T14:23:28.263Z,10.15
2022-11-12T14:26:32.844Z,10.43
2022-11-12T14:29:19.961Z,7.57
2022-11-12T14:32:09.141Z,9.18
2022-11-12T14:34:54.940Z,5.90
2022-11-12T14:37:45.755Z,5.78
2022-11-12T14:40:37.457Z,8.38
2022-11-12T14:43:31.883Z,3.83
2022-11-12T14:46:32.335Z,5.70
2022-11-12T14:49:28.128Z,6.53
2022-11-12T14:52:25.398Z,6.65
2022-11-12T14:55:15.294Z,6.05
2022-11-12T14:58:02.063Z,4.95
2022-11-12T15:00:52.541Z,5.80
2022-11-12T15:03:38.491Z,5.55
2022-11-12T15:06:31.900Z,6.40
2022-11-12T15:09:19.417Z,6.75
2022-11-12T15:12:09.281Z,6.90
2022-11-12T15:15:07.796Z,10.40
2022-11-12T15:18:05.855Z,6.88
2022-11-12T15:21:27.785Z,18.38
2022-11-12T15:24:12.943Z,17.35
2022-11-12T15:27:01.708Z,12.52
2022-11-12T15:29:47.501Z,10.85
2022-11-12T15:32:34.399Z,12.65
2022-11-12T15:35:26.836Z,9.30
2022-11-12T15:38:34.263Z,9.48
2022-11-12T15:41:27.360Z,12.35
2022-11-12T15:44:13.260Z,9.18
2022-11-12T15:47:00.183Z,16.40
2022-11-12T15:49:56.639Z,12.43
2022-11-12T15:52:42.519Z,8.98
2022-11-12T15:55:28.269Z,20.75
2022-11-12T15:58:29.070Z,16.02
2022-11-12T16:01:14.894Z,22.55
2022-11-12T16:04:00.476Z,15.75
2022-11-12T16:06:46.142Z,25.92
2022-11-12T16:09:32.006Z,18.50
2022-11-12T16:12:17.911Z,18.25
2022-11-12T16:15:03.889Z,16.90
2022-11-12T16:17:49.203Z,36.10
2022-11-12T16:20:36.033Z,15.30
2022-11-12T16:23:21.485Z,24.00
2022-11-12T16:26:08.863Z,19.30
2022-11-12T16:28:54.340Z,22.15
2022-11-12T16:31:42.993Z,52.03
2022-11-12T16:34:28.990Z,61.30
2022-11-12T16:37:15.489Z,19.50
2022-11-12T16:40:01.157Z,46.60
2022-11-12T16:42:46.537Z,40.38
2022-11-12T16:45:34.635Z,39.50
2022-11-12T16:48:21.554Z,46.35
2022-11-12T16:51:14.293Z,48.60
2022-11-12T16:54:00.093Z,52.05
2022-11-12T16:56:45.684Z,46.78
2022-11-12T16:59:31.578Z,59.47
2022-11-12T17:02:17.085Z,27.10
2022-11-12T17:05:10.053Z,37.97
2022-11-12T17:07:57.752Z,65.03
2022-11-12T17:10:43.342Z,43.00
2022-11-12T17:13:29.652Z,52.20
2022-11-12T17:16:15.706Z,139.10
2022-11-12T17:19:01.928Z,81.57
2022-11-12T17:21:47.651Z,59.00
2022-11-12T17:24:33.477Z,40.70
2022-11-12T17:27:18.947Z,14.48
2022-11-12T17:30:05.004Z,41.42
2022-11-12T17:32:50.318Z,22.98
2022-11-12T17:35:36.017Z,27.88
2022-11-12T17:38:21.592Z,8.50
2022-11-12T17:41:08.368Z,17.35
2022-11-12T17:43:55.339Z,17.15
2022-11-12T17:46:40.675Z,12.20
2022-11-12T17:49:26.345Z,14.18
2022-11-12T17:52:11.850Z,16.20
2022-11-12T17:54:57.584Z,15.63
2022-11-12T17:57:43.141Z,13.60
2022-11-12T18:00:29.497Z,15.93
2022-11-12T18:03:14.918Z,18.27
2022-11-12T18:06:00.463Z,15.52
2022-11-12T18:08:46.248Z,16.85
2022-11-12T18:11:41.886Z,20.00
2022-11-12T18:14:27.555Z,74.35
2022-11-12T18:17:12.957Z,48.40
2022-11-12T18:19:58.499Z,23.70
2022-11-12T18:22:45.130Z,25.90
2022-11-12T18:25:30.807Z,14.38
2022-11-12T18:28:16.473Z,24.83
2022-11-12T18:31:04.616Z,15.13
2022-11-12T18:33:50.725Z,12.15
2022-11-12T18:36:36.854Z,54.75
2022-11-12T18:39:22.418Z,43.13
2022-11-12T18:42:07.902Z,58.30
2022-11-12T18:44:53.564Z,21.73
2022-11-12T18:47:39.366Z,47.30
2022-11-12T18:50:28.057Z,23.65
2022-11-12T18:53:13.399Z,20.20
2022-11-12T18:56:01.166Z,32.03
2022-11-12T18:58:47.358Z,53.95
2022-11-12T19:04:22.044Z,30.70
2022-11-12T19:07:07.749Z,43.47
2022-11-12T19:09:53.234Z,57.70
2022-11-12T19:12:38.838Z,43.42
2022-11-12T19:15:26.948Z,38.42
2022-11-12T19:18:13.782Z,44.22
2022-11-12T19:21:05.085Z,92.50
2022-11-12T19:23:54.660Z,45.38
2022-11-12T19:26:40.582Z,46.88
2022-11-12T19:29:26.441Z,40.72
2022-11-12T19:32:12.235Z,65.13
2022-11-12T19:34:57.860Z,27.48
2022-11-12T19:37:43.792Z,50.38
2022-11-12T19:40:29.189Z,60.25
2022-11-12T19:43:14.710Z,34.25
2022-11-12T19:46:00.640Z,35.10
2022-11-12T19:48:46.736Z,50.95
2022-11-12T19:51:32.547Z,43.88
2022-11-12T19:54:18.630Z,93.57
2022-11-12T19:57:04.145Z,63.97
2022-11-12T19:59:49.780Z,69.57
2022-11-12T20:02:35.562Z,28.73
2022-11-12T20:05:21.349Z,14.65
2022-11-12T20:08:07.085Z,55.65
2022-11-12T20:10:52.576Z,26.58
2022-11-12T20:13:38.390Z,49.47
2022-11-12T20:16:25.509Z,37.65
2022-11-12T20:19:11.998Z,27.67
2022-11-12T20:21:57.723Z,27.00
2022-11-12T20:24:43.548Z,26.67
2022-11-12T20:27:29.288Z,37.70
2022-11-12T20:30:15.384Z,41.95
2022-11-12T20:33:00.955Z,24.67
2022-11-12T20:35:47.094Z,49.50
2022-11-12T20:38:36.171Z,41.22
2022-11-12T20:41:24.468Z,53.13
2022-11-12T20:44:10.428Z,39.70
2022-11-12T20:46:56.293Z,34.80
2022-11-12T20:49:41.872Z,39.42
2022-11-12T20:52:27.499Z,37.92
2022-11-12T20:55:13.182Z,37.45
2022-11-12T20:58:00.287Z,32.28
2022-11-12T21:00:45.731Z,43.92
2022-11-12T21:03:31.936Z,113.88
2022-11-12T21:06:20.199Z,35.20
2022-11-12T21:09:05.783Z,49.55
2022-11-12T21:11:51.473Z,59.10
2022-11-12T21:14:36.878Z,16.67
2022-11-12T21:17:22.373Z,25.40
2022-11-12T21:20:08.299Z,24.10
2022-11-12T21:22:54.148Z,19.13
2022-11-12T21:25:40.495Z,37.30
2022-11-12T21:28:26.167Z,27.10
2022-11-12T21:31:17.624Z,19.77
2022-11-12T21:34:04.029Z,52.40
2022-11-12T21:36:49.419Z,24.83
2022-11-12T21:39:34.870Z,29.85
2022-11-12T21:42:20.404Z,48.72
2022-11-12T21:45:06.439Z,31.35
2022-11-12T21:47:53.225Z,48.95
2022-11-12T21:50:38.669Z,42.00
2022-11-12T21:53:24.497Z,52.63
2022-11-12T21:56:17.675Z,69.70
2022-11-12T21:59:03.458Z,51.28
2022-11-12T22:01:49.086Z,46.60
2022-11-12T22:04:34.879Z,28.17
2022-11-12T22:07:20.412Z,36.92
2022-11-12T22:10:06.733Z,34.03
2022-11-12T22:13:19.637Z,40.35
2022-11-12T22:15:57.870Z,27.98
2022-11-12T22:18:45.366Z,29.10
2022-11-12T22:21:38.358Z,84.10
2022-11-12T22:24:25.309Z,36.65
2022-11-12T22:27:10.898Z,46.60
2022-11-12T22:29:56.526Z,22.23
2022-11-12T22:32:42.555Z,31.27
2022-11-12T22:35:28.352Z,15.85
2022-11-12T22:38:14.232Z,41.88
2022-11-12T22:41:08.334Z,52.20
2022-11-12T22:43:56.019Z,22.42
2022-11-12T22:49:27.384Z,16.50
2022-11-12T22:52:12.847Z,24.75
2022-11-12T22:54:58.182Z,72.90
2022-11-12T22:57:43.654Z,21.52
2022-11-12T23:00:31.813Z,40.05
2022-11-12T23:03:17.270Z,15.35
2022-11-12T23:06:05.142Z,47.22
2022-11-12T23:08:51.130Z,23.00
2022-11-12T23:11:37.182Z,15.38
2022-11-12T23:14:22.868Z,67.68
2022-11-12T23:17:08.514Z,44.42
2022-11-12T23:19:54.593Z,24.10
2022-11-12T23:22:40.508Z,39.55
2022-11-12T23:25:26.069Z,30.65
2022-11-12T23:28:11.729Z,18.48
2022-11-12T23:30:57.891Z,19.00
2022-11-12T23:33:45.179Z,18.30
2022-11-12T23:36:32.293Z,14.35
2022-11-12T23:39:17.743Z,9.20
2022-11-12T23:42:03.325Z,12.68
2022-11-12T23:44:49.032Z,10.90
2022-11-12T23:47:35.019Z,3.08
2022-11-12T23:50:20.644Z,4.97
2022-11-12T23:53:06.194Z,4.15
2022-11-12T23:55:51.730Z,8.00
2022-11-12T23:58:39.182Z,8.18
